createdAt,value
2022-09-23T00:01:21.122Z,1.60
2022-09-23T00:03:49.725Z,1.58
2022-09-23T00:06:21.049Z,1.67
2022-09-23T00:08:52.195Z,1.63
2022-09-23T00:11:22.013Z,1.60
2022-09-23T00:13:50.631Z,1.80
2022-09-23T00:16:21.440Z,1.88
2022-09-23T00:18:50.456Z,1.77
2022-09-23T00:21:18.574Z,1.40
2022-09-23T00:23:46.656Z,1.70
2022-09-23T00:26:16.108Z,1.98
2022-09-23T00:28:44.034Z,1.90
2022-09-23T00:31:32.116Z,2.20
2022-09-23T00:34:00.884Z,2.00
2022-09-23T00:36:29.592Z,2.00
2022-09-23T00:38:57.381Z,1.60
2022-09-23T00:41:25.664Z,1.88
2022-09-23T00:43:58.683Z,1.88
2022-09-23T00:46:33.183Z,2.03
2022-09-23T00:49:04.024Z,1.95
2022-09-23T00:51:37.301Z,1.83
2022-09-23T00:54:05.780Z,1.88
2022-09-23T00:56:33.564Z,2.10
2022-09-23T00:59:01.270Z,2.13
2022-09-23T01:01:32.042Z,1.90
2022-09-23T01:04:00.311Z,2.13
2022-09-23T01:06:29.706Z,2.17
2022-09-23T01:08:57.748Z,2.05
2022-09-23T01:11:34.897Z,1.97
2022-09-23T01:14:12.956Z,1.88
2022-09-23T01:16:46.333Z,1.80
2022-09-23T01:19:36.287Z,2.17
2022-09-23T01:22:07.271Z,2.10
2022-09-23T01:24:36.007Z,1.90
2022-09-23T01:27:14.334Z,1.98
2022-09-23T01:30:06.755Z,2.20
2022-09-23T01:32:54.611Z,1.80
2022-09-23T01:35:35.498Z,2.17
2022-09-23T01:38:25.628Z,1.87
2022-09-23T01:41:21.054Z,1.73
2022-09-23T01:44:10.767Z,1.95
2022-09-23T01:46:48.081Z,1.95
2022-09-23T01:49:21.622Z,2.05
2022-09-23T01:51:59.992Z,1.57
2022-09-23T01:54:33.603Z,2.10
2022-09-23T01:57:04.757Z,1.70
2022-09-23T01:59:40.051Z,1.70
2022-09-23T02:02:12.014Z,1.65
2022-09-23T02:04:45.993Z,1.77
2022-09-23T02:07:29.332Z,1.83
2022-09-23T02:10:00.798Z,2.20
2022-09-23T02:12:29.508Z,3.00
2022-09-23T02:15:05.161Z,2.35
2022-09-23T02:17:43.874Z,2.07
2022-09-23T02:20:12.694Z,2.03
2022-09-23T02:22:44.138Z,2.35
2022-09-23T02:25:12.785Z,1.83
2022-09-23T02:27:50.616Z,2.13
2022-09-23T02:30:23.449Z,2.00
2022-09-23T02:33:06.492Z,2.10
2022-09-23T02:35:43.094Z,2.03
2022-09-23T02:38:26.247Z,1.85
2022-09-23T02:41:00.490Z,2.10
2022-09-23T02:43:36.487Z,1.67
2022-09-23T02:46:07.094Z,2.10
2022-09-23T02:48:53.630Z,2.22
2022-09-23T02:51:22.136Z,1.98
2022-09-23T02:53:56.688Z,1.80
2022-09-23T02:56:24.725Z,2.30
2022-09-23T02:58:54.601Z,1.80
2022-09-23T03:01:45.454Z,2.00
2022-09-23T03:04:31.829Z,2.58
2022-09-23T03:07:02.989Z,2.08
2022-09-23T03:09:38.800Z,2.10
2022-09-23T03:12:16.884Z,2.03
2022-09-23T03:15:08.752Z,2.00
2022-09-23T03:17:42.904Z,1.80
2022-09-23T03:20:15.646Z,1.98
2022-09-23T03:22:50.224Z,2.20
2022-09-23T03:25:25.264Z,1.77
2022-09-23T03:27:57.859Z,1.80
2022-09-23T03:30:27.080Z,1.70
2022-09-23T03:32:57.939Z,2.08
2022-09-23T03:35:27.798Z,2.00
2022-09-23T03:38:12.381Z,2.28
2022-09-23T03:40:43.046Z,2.20
2022-09-23T03:43:13.606Z,2.30
2022-09-23T03:45:42.840Z,2.40
2022-09-23T03:48:10.425Z,2.10
2022-09-23T03:50:39.494Z,2.40
2022-09-23T03:53:07.577Z,2.70
2022-09-23T03:55:37.672Z,2.90
2022-09-23T03:58:05.857Z,2.55
2022-09-23T04:00:36.384Z,2.80
2022-09-23T04:03:09.530Z,3.05
2022-09-23T04:05:40.002Z,3.30
2022-09-23T04:08:07.993Z,2.90
2022-09-23T04:10:36.463Z,3.50
2022-09-23T04:13:08.669Z,3.40
2022-09-23T04:15:36.889Z,3.60
2022-09-23T04:18:04.911Z,3.10
2022-09-23T04:20:33.289Z,3.05
2022-09-23T04:23:01.709Z,2.45
2022-09-23T04:25:29.542Z,2.30
2022-09-23T04:27:57.650Z,2.35
2022-09-23T04:30:25.955Z,2.30
2022-09-23T04:32:54.430Z,1.90
2022-09-23T04:35:22.440Z,2.33
2022-09-23T04:37:50.904Z,2.00
2022-09-23T04:40:19.721Z,2.38
2022-09-23T04:42:47.599Z,2.28
2022-09-23T04:45:15.843Z,2.20
2022-09-23T04:47:46.645Z,2.45
2022-09-23T04:50:14.619Z,2.90
2022-09-23T04:52:42.034Z,2.35
2022-09-23T04:55:11.354Z,2.47
2022-09-23T04:57:40.263Z,2.58
2022-09-23T05:00:08.758Z,2.00
2022-09-23T05:02:41.974Z,2.50
2022-09-23T05:05:10.084Z,2.65
2022-09-23T05:07:37.848Z,2.50
2022-09-23T05:10:06.151Z,2.55
2022-09-23T05:12:34.253Z,2.25
2022-09-23T05:15:02.771Z,2.10
2022-09-23T05:17:31.752Z,2.28
2022-09-23T05:20:00.039Z,2.40
2022-09-23T05:22:30.516Z,2.28
2022-09-23T05:25:00.147Z,2.55
2022-09-23T05:27:27.837Z,2.30
2022-09-23T05:29:55.544Z,2.80
2022-09-23T05:32:23.818Z,3.00
2022-09-23T05:34:55.286Z,2.80
2022-09-23T05:37:23.872Z,2.70
2022-09-23T05:39:52.276Z,2.60
2022-09-23T05:42:22.601Z,2.53
2022-09-23T05:44:50.931Z,2.50
2022-09-23T05:47:19.265Z,2.60
2022-09-23T05:49:59.651Z,2.45
2022-09-23T05:52:35.042Z,2.87
2022-09-23T05:55:04.301Z,2.80
2022-09-23T05:57:35.738Z,2.55
2022-09-23T06:00:04.876Z,2.20
2022-09-23T06:02:42.844Z,2.35
2022-09-23T06:05:12.195Z,2.40
2022-09-23T06:08:04.587Z,2.35
2022-09-23T06:10:43.309Z,2.38
2022-09-23T06:13:15.443Z,2.58
2022-09-23T06:15:48.743Z,2.72
2022-09-23T06:18:23.505Z,2.30
2022-09-23T06:20:52.711Z,3.22
2022-09-23T06:26:07.363Z,2.80
2022-09-23T06:28:48.230Z,2.80
2022-09-23T06:31:21.873Z,3.10
2022-09-23T06:33:50.255Z,3.60
2022-09-23T06:36:38.666Z,3.80
2022-09-23T06:39:11.598Z,3.78
2022-09-23T06:41:39.576Z,3.50
2022-09-23T06:44:23.980Z,3.40
2022-09-23T06:46:58.772Z,4.00
2022-09-23T06:49:30.240Z,3.63
2022-09-23T06:52:00.096Z,3.70
2022-09-23T06:54:31.200Z,3.80
2022-09-23T06:57:10.551Z,3.90
2022-09-23T06:59:39.237Z,3.78
2022-09-23T07:02:10.218Z,4.28
2022-09-23T07:04:38.451Z,4.15
2022-09-23T07:07:06.752Z,4.00
2022-09-23T07:09:34.695Z,3.50
2022-09-23T07:12:03.210Z,3.60
2022-09-23T07:14:31.154Z,3.65
2022-09-23T07:17:00.845Z,3.95
2022-09-23T07:19:31.666Z,3.58
2022-09-23T07:22:00.904Z,2.90
2022-09-23T07:24:29.936Z,2.90
2022-09-23T07:26:58.097Z,3.00
2022-09-23T07:29:27.806Z,2.40
2022-09-23T07:32:05.704Z,2.40
2022-09-23T07:34:38.013Z,2.40
2022-09-23T07:37:07.362Z,2.70
2022-09-23T07:39:37.539Z,2.65
2022-09-23T07:42:06.526Z,2.20
2022-09-23T07:44:34.721Z,1.95
2022-09-23T07:47:04.153Z,2.00
2022-09-23T07:49:36.096Z,2.10
2022-09-23T07:52:07.502Z,1.92
2022-09-23T07:54:41.051Z,2.20
2022-09-23T07:57:09.385Z,2.28
2022-09-23T07:59:36.998Z,1.77
2022-09-23T08:02:05.434Z,2.00
2022-09-23T08:04:34.494Z,2.13
2022-09-23T08:07:07.151Z,1.95
2022-09-23T08:09:42.986Z,2.17
2022-09-23T08:12:16.077Z,1.75
2022-09-23T08:14:45.921Z,1.87
2022-09-23T08:17:15.017Z,1.70
2022-09-23T08:19:43.048Z,1.90
2022-09-23T08:22:12.831Z,1.90
2022-09-23T08:24:41.158Z,1.33
2022-09-23T08:27:10.594Z,1.30
2022-09-23T08:29:38.537Z,1.60
2022-09-23T08:32:06.681Z,1.45
2022-09-23T08:34:36.049Z,1.60
2022-09-23T08:37:04.767Z,1.52
2022-09-23T08:39:32.394Z,1.30
2022-09-23T08:42:16.993Z,1.08
2022-09-23T08:44:59.308Z,1.50
2022-09-23T08:47:32.808Z,1.30
2022-09-23T08:50:05.222Z,1.52
2022-09-23T08:52:55.352Z,1.27
2022-09-23T08:55:37.653Z,1.40
2022-09-23T08:58:26.457Z,1.15
2022-09-23T09:01:04.790Z,1.50
2022-09-23T09:03:43.596Z,1.40
2022-09-23T09:06:18.262Z,1.35
2022-09-23T09:09:02.573Z,1.70
2022-09-23T09:11:48.690Z,1.40
2022-09-23T09:14:29.412Z,1.70
2022-09-23T09:17:13.116Z,1.48
2022-09-23T09:19:53.571Z,1.75
2022-09-23T09:22:30.613Z,1.50
2022-09-23T09:25:16.860Z,1.50
2022-09-23T09:27:49.047Z,1.70
2022-09-23T09:30:25.854Z,1.50
2022-09-23T09:33:07.977Z,1.70
2022-09-23T09:35:57.008Z,1.70
2022-09-23T09:38:30.531Z,1.63
2022-09-23T09:41:10.941Z,1.45
2022-09-23T09:43:49.759Z,1.50
2022-09-23T09:46:38.981Z,1.67
2022-09-23T09:49:13.791Z,1.60
2022-09-23T09:51:53.074Z,1.63
2022-09-23T09:54:27.814Z,1.80
2022-09-23T09:57:01.021Z,1.70
2022-09-23T09:59:30.632Z,1.80
2022-09-23T10:02:22.742Z,1.50
2022-09-23T10:05:05.886Z,1.45
2022-09-23T10:07:37.847Z,1.67
2022-09-23T10:10:32.398Z,1.67
2022-09-23T10:13:17.048Z,1.50
2022-09-23T10:15:45.934Z,1.60
2022-09-23T10:18:23.494Z,1.70
2022-09-23T10:20:51.475Z,1.60
2022-09-23T10:23:26.236Z,1.50
2022-09-23T10:26:05.533Z,2.00
2022-09-23T10:28:42.108Z,1.60
2022-09-23T10:31:26.854Z,1.60
2022-09-23T10:34:06.197Z,1.50
2022-09-23T10:36:43.830Z,1.55
2022-09-23T10:39:30.868Z,1.50
2022-09-23T10:42:39.411Z,1.40
2022-09-23T10:45:43.532Z,1.55
2022-09-23T10:48:30.471Z,1.52
2022-09-23T10:51:01.229Z,1.58
2022-09-23T10:53:44.650Z,1.50
2022-09-23T10:56:16.727Z,1.70
2022-09-23T10:59:05.763Z,1.75
2022-09-23T11:01:59.404Z,1.80
2022-09-23T11:04:55.523Z,1.70
2022-09-23T11:07:46.065Z,1.70
2022-09-23T11:10:47.906Z,1.80
2022-09-23T11:13:19.376Z,1.92
2022-09-23T11:16:04.704Z,1.73
2022-09-23T11:18:52.012Z,1.80
2022-09-23T11:21:46.575Z,1.75
2022-09-23T11:24:58.977Z,1.30
2022-09-23T11:27:52.228Z,1.48
2022-09-23T11:30:21.544Z,1.60
2022-09-23T11:33:28.827Z,1.88
2022-09-23T11:36:00.246Z,1.40
2022-09-23T11:38:46.879Z,1.70
2022-09-23T11:41:27.272Z,1.80
2022-09-23T11:44:10.455Z,1.70
2022-09-23T11:47:03.096Z,1.52
2022-09-23T11:49:49.965Z,1.88
2022-09-23T11:52:30.367Z,1.60
2022-09-23T11:55:03.135Z,1.60
2022-09-23T11:57:52.303Z,1.60
2022-09-23T12:00:24.635Z,1.67
2022-09-23T12:03:07.817Z,1.80
2022-09-23T12:05:40.282Z,1.43
2022-09-23T12:08:29.943Z,1.63
2022-09-23T12:11:16.514Z,1.70
2022-09-23T12:14:05.473Z,2.20
2022-09-23T12:17:08.151Z,2.00
2022-09-23T12:19:54.805Z,1.50
2022-09-23T12:23:07.991Z,1.52
2022-09-23T12:25:52.664Z,1.80
2022-09-23T12:28:24.898Z,1.90
2022-09-23T12:30:54.309Z,2.00
2022-09-23T12:33:27.826Z,1.90
2022-09-23T12:36:05.093Z,1.58
2022-09-23T12:38:50.846Z,1.92
2022-09-23T12:41:19.816Z,1.70
2022-09-23T12:43:55.603Z,1.80
2022-09-23T12:46:27.712Z,1.67
2022-09-23T12:48:58.211Z,1.73
2022-09-23T12:51:32.913Z,1.90
2022-09-23T12:54:03.579Z,1.95
2022-09-23T12:56:34.508Z,1.60
2022-09-23T12:59:02.641Z,1.40
2022-09-23T13:01:36.800Z,1.83
2022-09-23T13:04:23.295Z,1.30
2022-09-23T13:06:59.117Z,1.30
2022-09-23T13:09:31.813Z,1.50
2022-09-23T13:12:04.239Z,1.27
2022-09-23T13:14:32.837Z,1.67
2022-09-23T13:17:00.300Z,1.40
2022-09-23T13:19:28.080Z,2.60
2022-09-23T13:22:00.686Z,1.80
2022-09-23T13:24:31.356Z,1.30
2022-09-23T13:27:16.551Z,1.40
2022-09-23T13:30:08.470Z,1.27
2022-09-23T13:32:39.327Z,1.58
2022-09-23T13:35:13.278Z,1.42
2022-09-23T13:37:48.923Z,1.60
2022-09-23T13:40:16.921Z,1.38
2022-09-23T13:43:11.022Z,1.35
2022-09-23T13:45:40.580Z,1.38
2022-09-23T13:48:11.497Z,1.45
2022-09-23T13:50:40.990Z,1.30
2022-09-23T13:53:13.427Z,1.27
2022-09-23T13:55:42.242Z,1.20
2022-09-23T13:58:20.485Z,1.40
2022-09-23T14:00:48.673Z,1.30
2022-09-23T14:03:29.359Z,1.23
2022-09-23T14:06:00.830Z,1.52
2022-09-23T14:08:29.503Z,1.30
2022-09-23T14:10:59.268Z,1.30
2022-09-23T14:13:27.155Z,1.15
2022-09-23T14:15:58.445Z,1.40
2022-09-23T14:18:33.012Z,1.30
2022-09-23T14:21:01.072Z,1.20
2022-09-23T14:23:28.572Z,1.52
2022-09-23T14:25:57.300Z,1.48
2022-09-23T14:28:26.528Z,1.23
2022-09-23T14:30:57.820Z,1.40
2022-09-23T14:33:32.690Z,1.40
2022-09-23T14:36:31.382Z,1.55
2022-09-23T14:39:07.618Z,1.40
2022-09-23T14:41:39.565Z,1.60
2022-09-23T14:44:07.703Z,1.70
2022-09-23T14:46:36.383Z,1.35
2022-09-23T14:49:10.818Z,1.48
2022-09-23T14:51:55.471Z,1.38
2022-09-23T14:54:44.397Z,1.30
2022-09-23T14:57:24.069Z,1.20
2022-09-23T15:00:00.212Z,1.50
2022-09-23T15:02:35.768Z,1.40
2022-09-23T15:05:20.442Z,1.35
2022-09-23T15:07:53.054Z,1.60
2022-09-23T15:10:28.249Z,1.20
2022-09-23T15:13:02.765Z,1.50
2022-09-23T15:15:31.897Z,1.40
2022-09-23T15:18:07.379Z,1.15
2022-09-23T15:20:35.071Z,2.17
2022-09-23T15:23:02.522Z,1.45
2022-09-23T15:25:40.837Z,1.30
2022-09-23T15:28:11.496Z,1.38
2022-09-23T15:30:39.592Z,1.50
2022-09-23T15:33:09.683Z,1.43
2022-09-23T15:35:37.632Z,1.60
2022-09-23T15:38:05.221Z,1.52
2022-09-23T15:40:34.299Z,1.20
2022-09-23T15:43:21.115Z,1.10
2022-09-23T15:45:52.836Z,1.30
2022-09-23T15:48:26.066Z,1.27
2022-09-23T15:50:54.532Z,1.20
2022-09-23T15:53:27.224Z,1.40
2022-09-23T15:55:55.451Z,1.70
2022-09-23T15:58:23.756Z,1.90
2022-09-23T16:00:56.051Z,1.63
2022-09-23T16:03:30.914Z,1.60
2022-09-23T16:06:01.452Z,1.90
2022-09-23T16:08:29.895Z,2.47
2022-09-23T16:10:57.734Z,2.20
2022-09-23T16:13:25.230Z,2.90
2022-09-23T16:15:53.371Z,2.00
2022-09-23T16:18:21.135Z,2.30
2022-09-23T16:20:49.644Z,2.72
2022-09-23T16:23:37.384Z,3.77
2022-09-23T16:26:27.073Z,2.72
2022-09-23T16:28:55.594Z,2.13
2022-09-23T16:31:25.663Z,2.50
2022-09-23T16:33:53.826Z,2.97
2022-09-23T16:36:27.780Z,2.60
2022-09-23T16:38:55.884Z,2.95
2022-09-23T16:41:24.788Z,4.05
2022-09-23T16:43:53.471Z,3.85
2022-09-23T16:46:21.539Z,3.08
2022-09-23T16:48:52.907Z,3.00
2022-09-23T16:51:22.419Z,2.70
2022-09-23T16:53:51.371Z,3.05
2022-09-23T16:56:27.298Z,3.20
2022-09-23T16:58:56.729Z,3.47
2022-09-23T17:01:44.440Z,3.43
2022-09-23T17:04:13.687Z,3.67
2022-09-23T17:06:50.780Z,3.83
2022-09-23T17:09:20.551Z,4.45
2022-09-23T17:11:53.646Z,4.85
2022-09-23T17:14:21.590Z,5.50
2022-09-23T17:16:49.215Z,6.55
2022-09-23T17:19:16.994Z,10.02
2022-09-23T17:21:45.068Z,10.38
2022-09-23T17:24:13.392Z,9.35
2022-09-23T17:26:41.050Z,7.07
2022-09-23T17:29:09.969Z,7.22
2022-09-23T17:31:37.824Z,8.45
2022-09-23T17:34:05.803Z,11.77
2022-09-23T17:36:33.460Z,12.50
2022-09-23T17:39:01.755Z,11.27
2022-09-23T17:41:29.999Z,11.23
2022-09-23T17:43:58.929Z,10.77
2022-09-23T17:46:29.217Z,10.32
2022-09-23T17:48:57.574Z,9.35
2022-09-23T17:51:26.634Z,9.47
2022-09-23T17:53:54.944Z,10.88
2022-09-23T17:56:25.688Z,10.55
2022-09-23T17:58:54.119Z,9.90
2022-09-23T18:01:23.810Z,8.90
2022-09-23T18:03:55.537Z,8.37
2022-09-23T18:06:24.315Z,7.82
2022-09-23T18:08:52.525Z,8.30
2022-09-23T18:11:23.046Z,9.35
2022-09-23T18:14:07.629Z,10.05
2022-09-23T18:16:37.213Z,9.50
2022-09-23T18:19:05.570Z,8.82
2022-09-23T18:21:35.987Z,8.32
2022-09-23T18:24:30.860Z,7.97
2022-09-23T18:26:52.970Z,8.70
2022-09-23T18:29:20.379Z,8.70
2022-09-23T18:31:51.160Z,8.98
2022-09-23T18:34:19.286Z,7.15
2022-09-23T18:36:46.822Z,6.90
2022-09-23T18:39:14.523Z,6.28
2022-09-23T18:41:43.929Z,5.80
2022-09-23T18:44:11.600Z,5.78
2022-09-23T18:46:39.753Z,6.20
2022-09-23T18:49:26.353Z,6.10
2022-09-23T18:51:55.962Z,6.05
2022-09-23T18:54:24.538Z,6.83
2022-09-23T18:56:53.262Z,6.63
2022-09-23T18:59:24.050Z,6.57
2022-09-23T19:01:52.253Z,7.88
2022-09-23T19:04:21.695Z,8.40
2022-09-23T19:06:50.329Z,8.50
2022-09-23T19:09:18.170Z,8.10
2022-09-23T19:11:46.978Z,8.55
2022-09-23T19:14:14.726Z,8.60
2022-09-23T19:16:42.764Z,9.07
2022-09-23T19:19:11.149Z,9.37
2022-09-23T19:21:38.890Z,9.23
2022-09-23T19:24:07.913Z,9.10
2022-09-23T19:26:38.666Z,9.73
2022-09-23T19:29:08.458Z,10.25
2022-09-23T19:31:40.714Z,10.17
2022-09-23T19:34:12.814Z,8.25
2022-09-23T19:36:43.069Z,7.25
2022-09-23T19:39:18.537Z,8.60
2022-09-23T19:41:47.074Z,9.02
2022-09-23T19:44:15.089Z,8.37
2022-09-23T19:46:46.098Z,8.00
2022-09-23T19:49:14.161Z,8.52
2022-09-23T19:51:44.710Z,7.78
2022-09-23T19:54:13.252Z,8.05
2022-09-23T19:56:40.802Z,8.17
2022-09-23T19:59:09.781Z,8.45
2022-09-23T20:01:37.695Z,8.38
2022-09-23T20:04:05.792Z,9.07
2022-09-23T20:06:39.262Z,8.30
2022-09-23T20:09:07.066Z,8.30
2022-09-23T20:11:35.123Z,8.05
2022-09-23T20:14:03.941Z,7.90
2022-09-23T20:16:33.214Z,7.13
2022-09-23T20:19:01.197Z,8.40
2022-09-23T20:21:29.511Z,8.37
2022-09-23T20:24:01.100Z,8.77
2022-09-23T20:26:47.393Z,7.65
2022-09-23T20:29:15.171Z,7.32
2022-09-23T20:31:42.819Z,7.57
2022-09-23T20:34:11.251Z,7.33
2022-09-23T20:36:40.166Z,7.90
2022-09-23T20:39:08.220Z,7.80
2022-09-23T20:41:38.075Z,6.53
2022-09-23T20:44:08.199Z,6.72
2022-09-23T20:46:36.502Z,6.77
2022-09-23T20:49:04.341Z,6.38
2022-09-23T20:51:35.172Z,6.70
2022-09-23T20:54:02.762Z,6.70
2022-09-23T20:56:30.470Z,6.88
2022-09-23T20:59:01.471Z,6.43
2022-09-23T21:01:29.284Z,6.57
2022-09-23T21:03:56.924Z,7.07
2022-09-23T21:06:26.390Z,6.60
2022-09-23T21:08:54.782Z,6.70
2022-09-23T21:11:22.699Z,6.27
2022-09-23T21:13:51.226Z,6.05
2022-09-23T21:16:22.572Z,6.20
2022-09-23T21:18:50.672Z,5.93
2022-09-23T21:21:19.841Z,5.85
2022-09-23T21:23:48.012Z,6.17
2022-09-23T21:26:19.937Z,5.30
2022-09-23T21:28:48.879Z,5.30
2022-09-23T21:31:27.264Z,5.18
2022-09-23T21:34:02.457Z,5.25
2022-09-23T21:36:34.780Z,4.93
2022-09-23T21:39:03.350Z,5.30
2022-09-23T21:41:31.200Z,5.57
2022-09-23T21:43:59.736Z,5.45
2022-09-23T21:46:28.488Z,5.82
2022-09-23T21:48:57.647Z,6.50
2022-09-23T21:51:26.946Z,5.55
2022-09-23T21:53:55.386Z,5.22
2022-09-23T21:56:27.541Z,5.00
2022-09-23T21:58:55.706Z,5.22
2022-09-23T22:01:24.803Z,4.40
2022-09-23T22:03:54.170Z,4.95
2022-09-23T22:06:27.297Z,4.57
2022-09-23T22:08:59.388Z,4.53
2022-09-23T22:11:50.148Z,4.90
2022-09-23T22:14:20.449Z,4.97
2022-09-23T22:16:48.861Z,4.70
2022-09-23T22:19:16.909Z,5.15
2022-09-23T22:21:45.335Z,5.60
2022-09-23T22:24:13.006Z,5.47
2022-09-23T22:26:44.657Z,5.43
2022-09-23T22:29:32.602Z,5.20
2022-09-23T22:32:19.045Z,5.03
2022-09-23T22:34:50.683Z,5.03
2022-09-23T22:37:27.289Z,4.60
2022-09-23T22:39:55.153Z,4.57
2022-09-23T22:42:22.814Z,4.13
2022-09-23T22:44:50.821Z,4.43
2022-09-23T22:47:19.448Z,4.38
2022-09-23T22:49:47.781Z,4.75
2022-09-23T22:52:16.687Z,4.40
2022-09-23T22:54:44.422Z,4.00
2022-09-23T22:57:12.346Z,4.13
2022-09-23T22:59:42.449Z,4.13
2022-09-23T23:02:10.015Z,4.20
2022-09-23T23:04:37.503Z,4.00
2022-09-23T23:07:06.121Z,3.70
2022-09-23T23:09:33.673Z,4.00
2022-09-23T23:12:01.292Z,3.80
2022-09-23T23:14:31.688Z,3.78
2022-09-23T23:16:59.789Z,3.60
2022-09-23T23:19:27.357Z,3.60
2022-09-23T23:21:55.301Z,3.70
2022-09-23T23:24:23.399Z,4.20
2022-09-23T23:26:51.721Z,3.60
2022-09-23T23:29:20.563Z,3.33
2022-09-23T23:31:48.342Z,3.80
2022-09-23T23:34:17.754Z,3.65
2022-09-23T23:36:45.882Z,3.80
2022-09-23T23:39:13.997Z,3.58
2022-09-23T23:41:41.823Z,3.63
2022-09-23T23:44:09.426Z,3.83
2022-09-23T23:46:37.665Z,4.00
2022-09-23T23:49:06.931Z,3.90
2022-09-23T23:51:34.662Z,3.90
2022-09-23T23:54:02.239Z,3.90
2022-09-23T23:56:30.397Z,3.92
2022-09-23T23:58:59.101Z,3.85
